createdAt,value
2024-05-09T00:00:47.016Z,16.04
2024-05-09T00:03:15.300Z,16.04
2024-05-09T00:05:44.582Z,16.02
2024-05-09T00:08:13.502Z,16.03
2024-05-09T00:10:42.227Z,16.04
2024-05-09T00:13:11.386Z,16.05
2024-05-09T00:15:40.406Z,16.05
2024-05-09T00:18:09.696Z,16.04
2024-05-09T00:20:40.768Z,15.98
2024-05-09T00:23:17.007Z,15.99
2024-05-09T00:25:45.741Z,15.82
2024-05-09T00:28:14.252Z,15.91
2024-05-09T00:30:42.464Z,15.90
2024-05-09T00:33:11.884Z,15.94
2024-05-09T00:35:42.044Z,15.98
2024-05-09T00:38:10.567Z,16.03
2024-05-09T00:40:42.152Z,16.04
2024-05-09T00:43:14.314Z,16.05
2024-05-09T00:45:44.445Z,15.96
2024-05-09T00:48:15.351Z,15.94
2024-05-09T00:50:47.370Z,15.90
2024-05-09T00:53:17.752Z,15.89
2024-05-09T00:55:47.524Z,15.88
2024-05-09T00:58:17.544Z,15.86
2024-05-09T01:00:47.292Z,15.85
2024-05-09T01:03:15.632Z,15.88
2024-05-09T01:05:44.530Z,15.89
2024-05-09T01:08:13.705Z,15.90
2024-05-09T01:10:44.969Z,15.90
2024-05-09T01:13:14.571Z,15.95
2024-05-09T01:15:43.982Z,15.97
2024-05-09T01:18:12.652Z,15.99
2024-05-09T01:20:44.883Z,15.99
2024-05-09T01:23:16.131Z,16.07
2024-05-09T01:25:46.694Z,16.07
2024-05-09T01:28:16.537Z,16.13
2024-05-09T01:30:53.036Z,16.09
2024-05-09T01:33:21.092Z,16.12
2024-05-09T01:35:49.279Z,16.08
2024-05-09T01:38:20.335Z,16.12
2024-05-09T01:40:49.068Z,16.04
2024-05-09T01:43:17.579Z,16.05
2024-05-09T01:45:46.285Z,15.98
2024-05-09T01:48:15.144Z,16.05
2024-05-09T01:50:44.053Z,16.04
2024-05-09T01:53:14.284Z,15.94
2024-05-09T01:55:44.492Z,15.94
2024-05-09T01:58:14.144Z,15.87
2024-05-09T02:00:43.456Z,15.88
2024-05-09T02:03:16.325Z,15.84
2024-05-09T02:05:47.377Z,15.88
2024-05-09T02:08:18.038Z,15.83
2024-05-09T02:10:48.906Z,15.86
2024-05-09T02:13:18.004Z,15.85
2024-05-09T02:15:45.982Z,15.81
2024-05-09T02:18:14.699Z,15.78
2024-05-09T02:20:43.303Z,15.70
2024-05-09T02:23:12.749Z,15.72
2024-05-09T02:25:44.675Z,15.69
2024-05-09T02:28:12.609Z,15.71
2024-05-09T02:30:42.483Z,15.64
2024-05-09T02:33:13.435Z,15.67
2024-05-09T02:35:44.384Z,15.60
2024-05-09T02:38:13.602Z,15.64
2024-05-09T02:40:41.637Z,15.62
2024-05-09T02:43:11.339Z,15.59
2024-05-09T02:45:40.736Z,15.60
2024-05-09T02:48:11.857Z,15.56
2024-05-09T02:50:41.594Z,15.53
2024-05-09T02:53:11.904Z,15.48
2024-05-09T02:55:40.482Z,15.39
2024-05-09T02:58:08.661Z,15.34
2024-05-09T03:00:40.590Z,15.25
2024-05-09T03:03:13.625Z,15.32
2024-05-09T03:05:44.781Z,15.36
2024-05-09T03:08:13.847Z,15.40
2024-05-09T03:10:42.515Z,15.34
2024-05-09T03:13:13.546Z,15.34
2024-05-09T03:15:44.073Z,15.32
2024-05-09T03:18:13.074Z,15.31
2024-05-09T03:20:44.554Z,15.31
2024-05-09T03:23:12.702Z,15.28
2024-05-09T03:25:40.507Z,15.31
2024-05-09T03:28:09.106Z,15.37
2024-05-09T03:30:41.995Z,15.33
2024-05-09T03:33:13.593Z,15.40
2024-05-09T03:35:47.164Z,15.45
2024-05-09T03:38:15.753Z,15.45
2024-05-09T03:40:48.842Z,15.50
2024-05-09T03:43:19.436Z,15.54
2024-05-09T03:45:49.232Z,15.60
2024-05-09T03:48:18.278Z,15.62
2024-05-09T03:50:46.676Z,15.67
2024-05-09T03:53:15.392Z,15.75
2024-05-09T03:55:43.782Z,15.82
2024-05-09T03:58:13.364Z,15.88
2024-05-09T04:00:42.703Z,15.92
2024-05-09T04:03:13.053Z,15.97
2024-05-09T04:05:44.378Z,16.06
2024-05-09T04:08:12.694Z,16.04
2024-05-09T04:10:41.703Z,16.12
2024-05-09T04:13:10.700Z,16.11
2024-05-09T04:15:39.720Z,16.19
2024-05-09T04:18:08.630Z,16.25
2024-05-09T04:20:40.275Z,16.27
2024-05-09T04:23:14.315Z,16.42
2024-05-09T04:25:45.087Z,16.45
2024-05-09T04:28:14.107Z,16.48
2024-05-09T04:30:42.764Z,16.59
2024-05-09T04:33:13.940Z,16.69
2024-05-09T04:35:45.516Z,16.67
2024-05-09T04:38:14.769Z,16.75
2024-05-09T04:40:44.620Z,16.80
2024-05-09T04:43:17.578Z,16.87
2024-05-09T04:45:46.644Z,16.86
2024-05-09T04:48:14.864Z,16.85
2024-05-09T04:50:43.629Z,16.90
2024-05-09T04:53:16.626Z,16.88
2024-05-09T04:55:44.813Z,16.89
2024-05-09T04:58:13.635Z,16.86
2024-05-09T05:00:42.483Z,16.85
2024-05-09T05:03:14.501Z,16.73
2024-05-09T05:05:45.675Z,16.71
2024-05-09T05:08:19.446Z,16.76
2024-05-09T05:10:49.111Z,16.76
2024-05-09T05:13:22.265Z,16.81
2024-05-09T05:15:53.864Z,16.94
2024-05-09T05:18:22.252Z,16.95
2024-05-09T05:20:50.351Z,17.00
2024-05-09T05:23:22.241Z,16.97
2024-05-09T05:25:52.733Z,16.90
2024-05-09T05:28:21.280Z,17.00
2024-05-09T05:30:49.648Z,17.11
2024-05-09T05:33:19.481Z,17.25
2024-05-09T05:35:47.622Z,17.26
2024-05-09T05:38:16.038Z,17.38
2024-05-09T05:40:43.253Z,17.38
2024-05-09T05:43:17.044Z,17.48
2024-05-09T05:45:45.481Z,17.58
2024-05-09T05:48:13.502Z,17.82
2024-05-09T05:50:40.607Z,17.83
2024-05-09T05:53:09.024Z,17.94
2024-05-09T05:55:37.753Z,18.15
2024-05-09T05:58:09.971Z,18.35
2024-05-09T06:00:40.195Z,18.49
2024-05-09T06:03:10.242Z,18.75
2024-05-09T06:05:43.473Z,18.85
2024-05-09T06:08:12.694Z,18.85
2024-05-09T06:10:41.660Z,18.77
2024-05-09T06:13:13.745Z,18.62
2024-05-09T06:15:42.060Z,18.77
2024-05-09T06:18:10.598Z,18.86
2024-05-09T06:20:40.441Z,18.95
2024-05-09T06:23:08.997Z,18.89
2024-05-09T06:25:37.126Z,18.83
2024-05-09T06:28:05.228Z,18.91
2024-05-09T06:33:05.201Z,18.85
2024-05-09T06:35:34.055Z,18.76
2024-05-09T06:38:02.465Z,18.80
2024-05-09T06:40:37.171Z,18.88
2024-05-09T06:43:18.339Z,19.08
2024-05-09T06:45:52.675Z,19.25
2024-05-09T06:48:21.280Z,19.15
2024-05-09T06:50:49.185Z,19.51
2024-05-09T06:53:17.153Z,19.73
2024-05-09T06:55:44.340Z,19.94
2024-05-09T06:58:11.935Z,20.29
2024-05-09T07:00:41.492Z,20.36
2024-05-09T07:03:10.124Z,20.57
2024-05-09T07:05:38.235Z,20.74
2024-05-09T07:08:06.993Z,20.45
2024-05-09T07:10:36.641Z,20.47
2024-05-09T07:13:15.082Z,21.04
2024-05-09T07:15:43.307Z,21.06
2024-05-09T07:18:18.776Z,21.40
2024-05-09T07:20:50.752Z,21.68
2024-05-09T07:23:18.957Z,22.15
2024-05-09T07:25:46.390Z,22.42
2024-05-09T07:28:15.424Z,22.33
2024-05-09T07:30:43.453Z,22.62
2024-05-09T07:33:23.074Z,22.71
2024-05-09T07:35:52.571Z,22.66
2024-05-09T07:38:20.603Z,23.01
2024-05-09T07:40:48.106Z,23.19
2024-05-09T07:43:16.353Z,23.15
2024-05-09T07:45:51.893Z,23.40
2024-05-09T07:52:39.258Z,23.23
2024-05-09T07:53:47.901Z,23.78
2024-05-09T07:56:19.845Z,23.82
2024-05-09T07:58:50.340Z,23.99
2024-05-09T08:01:18.065Z,24.26
2024-05-09T08:03:45.582Z,24.63
2024-05-09T08:06:13.463Z,24.25
2024-05-09T08:08:41.169Z,24.65
2024-05-09T08:11:08.375Z,24.78
2024-05-09T08:13:35.968Z,24.49
2024-05-09T08:16:03.673Z,24.50
2024-05-09T08:18:33.330Z,24.54
2024-05-09T08:21:01.122Z,24.65
2024-05-09T08:23:28.952Z,24.55
2024-05-09T08:25:56.865Z,24.87
2024-05-09T08:28:24.461Z,25.04
2024-05-09T08:30:52.316Z,25.10
2024-05-09T08:33:19.546Z,25.39
2024-05-09T08:35:46.704Z,25.25
2024-05-09T08:38:13.804Z,25.31
2024-05-09T08:40:41.683Z,25.31
2024-05-09T08:43:11.921Z,25.28
2024-05-09T08:45:44.346Z,25.32
2024-05-09T08:48:15.445Z,25.29
2024-05-09T08:50:45.158Z,25.68
2024-05-09T08:53:15.210Z,25.80
2024-05-09T08:55:44.216Z,25.85
2024-05-09T08:58:19.555Z,25.93
2024-05-09T09:00:47.578Z,25.94
2024-05-09T09:03:17.857Z,26.16
2024-05-09T09:06:07.303Z,26.08
2024-05-09T09:08:34.395Z,26.33
2024-05-09T09:11:01.944Z,26.52
2024-05-09T09:13:29.316Z,26.53
2024-05-09T09:16:00.026Z,26.83
2024-05-09T09:18:28.054Z,27.00
2024-05-09T09:20:56.289Z,27.32
2024-05-09T09:23:23.985Z,26.98
2024-05-09T09:25:52.107Z,27.21
2024-05-09T09:28:23.472Z,27.28
2024-05-09T09:30:51.499Z,27.36
2024-05-09T09:33:19.295Z,27.76
2024-05-09T09:35:47.026Z,27.78
2024-05-09T09:38:18.373Z,28.11
2024-05-09T09:40:50.210Z,28.09
2024-05-09T09:43:20.708Z,28.65
2024-05-09T09:45:53.518Z,28.50
2024-05-09T09:48:22.910Z,28.59
2024-05-09T09:50:54.492Z,28.50
2024-05-09T09:53:23.362Z,28.59
2024-05-09T09:55:50.803Z,29.11
2024-05-09T09:58:18.390Z,29.56
2024-05-09T10:00:45.869Z,29.65
2024-05-09T10:03:13.220Z,29.13
2024-05-09T10:05:44.165Z,29.50
2024-05-09T10:08:15.258Z,29.73
2024-05-09T10:10:46.733Z,30.18
2024-05-09T10:13:14.491Z,29.73
2024-05-09T10:15:46.544Z,29.77
2024-05-09T10:18:15.248Z,29.99
2024-05-09T10:20:46.528Z,30.23
2024-05-09T10:23:29.476Z,30.18
2024-05-09T10:26:00.394Z,30.52
2024-05-09T10:28:29.524Z,30.46
2024-05-09T10:31:15.580Z,31.25
2024-05-09T10:33:51.360Z,32.11
2024-05-09T10:36:24.393Z,32.53
2024-05-09T10:38:53.482Z,32.81
2024-05-09T10:41:22.021Z,32.54
2024-05-09T10:43:50.386Z,32.56
2024-05-09T10:46:21.180Z,32.59
2024-05-09T10:48:49.375Z,32.26
2024-05-09T10:51:19.461Z,31.78
2024-05-09T10:53:48.159Z,32.36
2024-05-09T10:56:17.002Z,33.23
2024-05-09T10:58:44.720Z,33.42
2024-05-09T11:01:16.584Z,34.07
2024-05-09T11:03:50.661Z,34.89
2024-05-09T11:06:18.624Z,35.26
2024-05-09T11:08:46.908Z,35.78
2024-05-09T11:11:14.188Z,35.80
2024-05-09T11:13:41.222Z,36.24
2024-05-09T11:16:22.401Z,36.87
2024-05-09T11:18:55.544Z,35.93
2024-05-09T11:21:24.177Z,36.22
2024-05-09T11:23:52.058Z,37.69
2024-05-09T11:26:21.589Z,38.57
2024-05-09T11:28:50.911Z,38.16
2024-05-09T11:31:18.428Z,38.00
2024-05-09T11:33:46.756Z,37.17
2024-05-09T11:36:17.409Z,36.61
2024-05-09T11:38:45.139Z,37.98
2024-05-09T11:41:18.687Z,38.67
2024-05-09T11:43:46.522Z,39.19
2024-05-09T11:46:13.988Z,39.74
2024-05-09T11:48:41.902Z,40.44
2024-05-09T11:51:09.703Z,40.19
2024-05-09T11:53:37.421Z,41.25
2024-05-09T11:56:05.508Z,41.31
2024-05-09T11:58:34.922Z,41.13
2024-05-09T12:01:03.046Z,41.99
2024-05-09T12:03:30.502Z,42.24
2024-05-09T12:05:57.810Z,42.22
2024-05-09T12:08:25.322Z,43.69
2024-05-09T12:10:53.455Z,42.85
2024-05-09T12:13:21.552Z,43.10
2024-05-09T12:15:49.379Z,43.28
2024-05-09T12:18:17.217Z,43.66
2024-05-09T12:20:44.906Z,44.16
2024-05-09T12:23:12.570Z,44.71
2024-05-09T12:25:40.410Z,43.96
2024-05-09T12:28:08.903Z,43.96
2024-05-09T12:30:40.127Z,41.72
2024-05-09T12:33:13.273Z,42.81
2024-05-09T12:35:44.388Z,41.11
2024-05-09T12:38:14.246Z,42.09
2024-05-09T12:40:42.525Z,43.65
2024-05-09T12:43:11.157Z,44.25
2024-05-09T12:45:40.160Z,43.79
2024-05-09T12:48:12.479Z,44.20
2024-05-09T12:50:41.955Z,44.94
2024-05-09T12:53:10.032Z,44.25
2024-05-09T12:55:44.894Z,44.46
2024-05-09T12:58:22.495Z,43.35
2024-05-09T13:00:51.983Z,43.40
2024-05-09T13:03:20.289Z,43.01
2024-05-09T13:05:49.483Z,42.73
2024-05-09T13:08:17.196Z,43.60
2024-05-09T13:10:45.039Z,44.54
2024-05-09T13:13:12.933Z,43.73
2024-05-09T13:15:41.138Z,44.17
2024-05-09T13:18:09.514Z,44.54
2024-05-09T13:20:37.429Z,45.49
2024-05-09T13:23:07.075Z,44.87
2024-05-09T13:25:37.708Z,45.96
2024-05-09T13:28:07.165Z,46.10
2024-05-09T13:30:40.328Z,45.92
2024-05-09T13:33:11.702Z,46.58
2024-05-09T13:35:47.812Z,46.70
2024-05-09T13:38:19.436Z,46.80
2024-05-09T13:40:48.118Z,46.67
2024-05-09T13:43:16.673Z,46.66
2024-05-09T13:45:45.355Z,46.45
2024-05-09T13:48:14.360Z,47.23
2024-05-09T13:50:42.761Z,47.41
2024-05-09T13:53:10.664Z,47.59
2024-05-09T13:55:39.297Z,47.54
2024-05-09T13:58:07.790Z,47.02
2024-05-09T14:00:44.692Z,46.66
2024-05-09T14:03:18.985Z,45.90
2024-05-09T14:05:50.555Z,46.28
2024-05-09T14:08:20.332Z,46.61
2024-05-09T14:10:49.717Z,46.46
2024-05-09T14:13:18.696Z,46.84
2024-05-09T14:15:47.596Z,46.52
2024-05-09T14:18:15.474Z,46.69
2024-05-09T14:20:43.575Z,46.85
2024-05-09T14:23:11.474Z,46.93
2024-05-09T14:25:42.844Z,46.92
2024-05-09T14:28:13.056Z,47.10
2024-05-09T14:30:41.826Z,46.06
2024-05-09T14:33:10.389Z,46.00
2024-05-09T14:35:39.044Z,46.08
2024-05-09T14:38:08.852Z,45.06
2024-05-09T14:40:42.312Z,44.40
2024-05-09T14:43:13.650Z,43.31
2024-05-09T14:45:43.387Z,43.96
2024-05-09T14:48:12.511Z,45.13
2024-05-09T14:50:41.123Z,45.35
2024-05-09T14:53:13.392Z,44.28
2024-05-09T14:55:43.457Z,44.00
2024-05-09T14:58:13.475Z,44.14
2024-05-09T15:00:46.451Z,42.19
2024-05-09T15:03:19.361Z,39.86
2024-05-09T15:05:48.407Z,37.58
2024-05-09T15:08:18.628Z,35.84
2024-05-09T15:10:47.023Z,34.09
2024-05-09T15:13:16.895Z,32.78
2024-05-09T15:15:45.802Z,31.18
2024-05-09T15:18:15.150Z,30.54
2024-05-09T15:20:45.406Z,29.90
2024-05-09T15:23:14.263Z,29.41
2024-05-09T15:25:45.030Z,29.04
2024-05-09T15:28:13.164Z,28.65
2024-05-09T15:30:43.984Z,27.91
2024-05-09T15:33:14.980Z,27.55
2024-05-09T15:35:42.967Z,27.27
2024-05-09T15:38:11.440Z,27.10
2024-05-09T15:40:40.825Z,26.94
2024-05-09T15:43:11.514Z,26.61
2024-05-09T15:45:41.684Z,26.43
2024-05-09T15:48:10.962Z,26.16
2024-05-09T15:50:41.408Z,25.78
2024-05-09T15:53:12.744Z,25.65
2024-05-09T15:55:42.864Z,25.31
2024-05-09T15:58:12.690Z,25.24
2024-05-09T16:00:44.223Z,25.15
2024-05-09T16:03:14.819Z,25.07
2024-05-09T16:05:44.612Z,24.96
2024-05-09T16:08:13.128Z,24.77
2024-05-09T16:10:48.408Z,24.67
2024-05-09T16:13:17.534Z,24.64
2024-05-09T16:15:46.567Z,24.61
2024-05-09T16:18:15.076Z,24.39
2024-05-09T16:20:44.842Z,24.50
2024-05-09T16:23:14.899Z,24.34
2024-05-09T16:25:45.522Z,24.36
2024-05-09T16:28:14.227Z,24.29
2024-05-09T16:30:42.670Z,24.29
2024-05-09T16:33:13.996Z,24.18
2024-05-09T16:35:41.751Z,24.25
2024-05-09T16:38:09.646Z,24.26
2024-05-09T16:40:40.313Z,24.17
2024-05-09T16:43:10.584Z,24.09
2024-05-09T16:45:41.044Z,23.93
2024-05-09T16:48:09.601Z,23.84
2024-05-09T16:50:37.775Z,23.73
2024-05-09T16:53:06.844Z,23.58
2024-05-09T16:55:36.328Z,23.55
2024-05-09T16:58:04.579Z,23.47
2024-05-09T17:00:40.633Z,23.37
2024-05-09T17:03:12.747Z,23.27
2024-05-09T17:05:42.375Z,23.19
2024-05-09T17:08:10.331Z,23.08
2024-05-09T17:10:38.376Z,22.99
2024-05-09T17:13:07.895Z,22.93
2024-05-09T17:15:37.864Z,22.84
2024-05-09T17:18:07.778Z,22.74
2024-05-09T17:20:37.654Z,22.67
2024-05-09T17:23:15.407Z,22.57
2024-05-09T17:25:44.347Z,22.48
2024-05-09T17:28:12.675Z,22.39
2024-05-09T17:30:42.623Z,22.32
2024-05-09T17:33:11.926Z,22.19
2024-05-09T17:35:41.923Z,22.12
2024-05-09T17:38:11.023Z,22.00
2024-05-09T17:40:39.762Z,21.90
2024-05-09T17:43:10.695Z,21.78
2024-05-09T17:45:42.552Z,21.60
2024-05-09T17:48:12.152Z,21.48
2024-05-09T17:50:41.373Z,21.36
2024-05-09T17:53:11.416Z,21.21
2024-05-09T17:55:40.230Z,21.01
2024-05-09T17:58:09.799Z,20.78
2024-05-09T18:00:41.304Z,20.57
2024-05-09T18:03:12.675Z,20.37
2024-05-09T18:05:43.651Z,20.18
2024-05-09T18:08:13.097Z,20.03
2024-05-09T18:10:42.871Z,19.83
2024-05-09T18:13:12.294Z,19.63
2024-05-09T18:15:41.659Z,19.47
2024-05-09T18:18:11.014Z,19.32
2024-05-09T18:20:44.045Z,19.14
2024-05-09T18:23:17.077Z,19.02
2024-05-09T18:25:47.992Z,18.87
2024-05-09T18:28:17.617Z,18.74
2024-05-09T18:30:46.723Z,18.56
2024-05-09T18:33:15.280Z,18.48
2024-05-09T18:35:45.133Z,18.34
2024-05-09T18:38:14.267Z,18.21
2024-05-09T18:40:45.915Z,17.93
2024-05-09T18:43:16.177Z,17.85
2024-05-09T18:45:46.134Z,17.57
2024-05-09T18:48:14.093Z,17.55
2024-05-09T18:50:43.177Z,17.54
2024-05-09T18:53:13.467Z,17.53
2024-05-09T18:55:43.264Z,17.44
2024-05-09T18:58:14.439Z,17.32
2024-05-09T19:00:45.364Z,17.35
2024-05-09T19:03:16.235Z,17.29
2024-05-09T19:05:45.951Z,17.24
2024-05-09T19:08:15.605Z,17.14
2024-05-09T19:10:48.242Z,16.92
2024-05-09T19:13:17.309Z,16.90
2024-05-09T19:15:45.356Z,16.86
2024-05-09T19:18:14.908Z,16.84
2024-05-09T19:20:44.561Z,16.72
2024-05-09T19:23:13.456Z,16.62
2024-05-09T19:25:42.109Z,16.58
2024-05-09T19:28:10.202Z,16.49
2024-05-09T19:30:41.792Z,16.41
2024-05-09T19:33:15.002Z,16.30
2024-05-09T19:35:44.480Z,16.15
2024-05-09T19:38:13.284Z,16.00
2024-05-09T19:40:44.082Z,15.83
2024-05-09T19:43:12.453Z,15.57
2024-05-09T19:45:41.372Z,15.48
2024-05-09T19:48:10.111Z,15.53
2024-05-09T19:50:43.201Z,15.61
2024-05-09T19:53:14.010Z,15.55
2024-05-09T19:55:43.423Z,15.56
2024-05-09T19:58:12.077Z,15.61
2024-05-09T20:00:43.344Z,15.57
2024-05-09T20:03:16.132Z,15.47
2024-05-09T20:05:46.762Z,15.47
2024-05-09T20:08:15.510Z,15.46
2024-05-09T20:10:44.614Z,15.33
2024-05-09T20:13:14.245Z,15.33
2024-05-09T20:15:43.208Z,15.31
2024-05-09T20:18:11.800Z,15.17
2024-05-09T20:20:42.759Z,15.21
2024-05-09T20:23:13.948Z,15.23
2024-05-09T20:25:42.978Z,15.18
2024-05-09T20:28:11.514Z,15.13
2024-05-09T20:30:39.837Z,14.88
2024-05-09T20:33:09.625Z,14.79
2024-05-09T20:35:37.847Z,14.71
2024-05-09T20:38:06.181Z,14.64
2024-05-09T20:40:38.118Z,14.51
2024-05-09T20:43:09.931Z,14.54
2024-05-09T20:45:39.843Z,14.57
2024-05-09T20:48:09.707Z,14.66
2024-05-09T20:50:40.943Z,14.67
2024-05-09T20:53:15.527Z,14.54
2024-05-09T20:55:45.217Z,14.58
2024-05-09T20:58:14.037Z,14.59
2024-05-09T21:00:45.560Z,14.41
2024-05-09T21:03:16.664Z,14.49
2024-05-09T21:05:47.250Z,14.48
2024-05-09T21:08:16.205Z,14.28
2024-05-09T21:10:44.301Z,14.37
2024-05-09T21:13:13.367Z,14.31
2024-05-09T21:15:42.047Z,14.14
2024-05-09T21:18:10.391Z,14.20
2024-05-09T21:20:39.017Z,14.26
2024-05-09T21:23:07.669Z,14.25
2024-05-09T21:25:36.353Z,14.23
2024-05-09T21:28:05.416Z,14.13
2024-05-09T21:30:41.344Z,13.90
2024-05-09T21:33:14.226Z,13.81
2024-05-09T21:35:44.546Z,13.87
2024-05-09T21:38:14.940Z,13.89
2024-05-09T21:40:45.321Z,13.78
2024-05-09T21:43:14.963Z,13.78
2024-05-09T21:45:44.278Z,13.77
2024-05-09T21:48:13.169Z,13.55
2024-05-09T21:50:42.837Z,13.52
2024-05-09T21:53:12.870Z,13.48
2024-05-09T21:55:42.496Z,13.35
2024-05-09T21:58:15.133Z,13.29
2024-05-09T22:00:46.613Z,13.34
2024-05-09T22:03:15.768Z,13.37
2024-05-09T22:05:45.506Z,13.42
2024-05-09T22:08:14.052Z,13.16
2024-05-09T22:10:42.915Z,13.27
2024-05-09T22:13:11.664Z,13.22
2024-05-09T22:15:41.021Z,13.08
2024-05-09T22:18:11.409Z,13.02
2024-05-09T22:20:45.837Z,13.07
2024-05-09T22:23:15.984Z,13.01
2024-05-09T22:25:44.673Z,13.05
2024-05-09T22:28:15.066Z,12.94
2024-05-09T22:30:44.624Z,12.68
2024-05-09T22:33:13.191Z,12.77
2024-05-09T22:35:42.197Z,12.88
2024-05-09T22:38:10.210Z,12.82
2024-05-09T22:40:47.124Z,12.84
2024-05-09T22:43:22.643Z,12.92
2024-05-09T22:45:56.571Z,12.84
2024-05-09T22:48:25.824Z,12.89
2024-05-09T22:50:55.488Z,12.88
2024-05-09T22:53:27.972Z,12.86
2024-05-09T22:55:56.584Z,12.82
2024-05-09T22:58:25.934Z,12.72
2024-05-09T23:00:55.642Z,12.73
2024-05-09T23:03:24.731Z,12.53
2024-05-09T23:05:53.625Z,12.47
2024-05-09T23:08:22.236Z,12.28
2024-05-09T23:10:51.622Z,12.06
2024-05-09T23:13:20.752Z,12.24
2024-05-09T23:15:50.116Z,12.36
2024-05-09T23:18:19.243Z,12.34
2024-05-09T23:20:48.244Z,12.31
2024-05-09T23:23:17.435Z,12.34
2024-05-09T23:25:46.608Z,12.30
2024-05-09T23:28:14.685Z,12.33
2024-05-09T23:30:43.723Z,12.30
2024-05-09T23:33:13.173Z,12.19
2024-05-09T23:35:42.719Z,12.16
2024-05-09T23:38:11.625Z,12.20
2024-05-09T23:40:41.698Z,12.13
2024-05-09T23:43:12.657Z,12.03
2024-05-09T23:45:42.853Z,12.02
2024-05-09T23:48:12.066Z,11.68
2024-05-09T23:50:41.539Z,11.84
2024-05-09T23:53:11.418Z,11.89
2024-05-09T23:55:40.260Z,11.90
2024-05-09T23:58:09.041Z,11.91
